Terminal Aerodrome Forecast
Issued by NWS

Home | Current Version | Previous Version | Text Only | Print | Product List | Glossary On
Versions: 1 2 3 4 5 6 7 8 9 10 11 12 13 14 15 16 17 18 19 20 21
000
FTUS44 KOHX 261720
TAFCKV
TAF
KCKV 261720Z 2618/2718 24007KT P6SM SCT040
     FM261900 26007KT P6SM VCTS SCT045CB BKN080
     FM270100 29003KT P6SM SCT100 SCT250
     FM270900 00000KT 3SM BR SCT250=

USA.gov is the U.S. government's official web portal to all federal, state and local government web resources and services.